createdAt,value
2022-09-20T00:01:11.492Z,7.66
2022-09-20T00:03:40.591Z,7.64
2022-09-20T00:06:08.694Z,7.74
2022-09-20T00:08:35.982Z,7.51
2022-09-20T00:11:07.446Z,7.37
2022-09-20T00:13:35.438Z,7.39
2022-09-20T00:16:04.975Z,7.33
2022-09-20T00:18:32.113Z,7.29
2022-09-20T00:20:58.891Z,7.29
2022-09-20T00:23:25.728Z,7.28
2022-09-20T00:25:57.182Z,7.36
2022-09-20T00:28:24.173Z,7.30
2022-09-20T00:30:52.097Z,7.32
2022-09-20T00:33:19.825Z,7.26
2022-09-20T00:35:47.255Z,7.12
2022-09-20T00:38:14.777Z,7.19
2022-09-20T00:40:43.188Z,7.05
2022-09-20T00:43:17.290Z,6.95
2022-09-20T00:45:49.723Z,7.10
2022-09-20T00:48:25.217Z,7.25
2022-09-20T00:50:55.513Z,7.17
2022-09-20T00:53:22.420Z,6.94
2022-09-20T00:55:51.659Z,6.90
2022-09-20T00:58:19.461Z,7.12
2022-09-20T01:00:46.800Z,7.03
2022-09-20T01:03:15.595Z,7.01
2022-09-20T01:05:44.630Z,6.97
2022-09-20T01:08:12.607Z,6.93
2022-09-20T01:10:39.422Z,6.90
2022-09-20T01:13:06.438Z,6.81
2022-09-20T01:15:35.110Z,6.74
2022-09-20T01:18:02.843Z,6.94
2022-09-20T01:20:35.452Z,6.87
2022-09-20T01:23:21.071Z,6.87
2022-09-20T01:25:54.180Z,6.93
2022-09-20T01:28:21.630Z,7.01
2022-09-20T01:31:01.098Z,7.09
2022-09-20T01:33:31.334Z,7.11
2022-09-20T01:36:01.463Z,7.07
2022-09-20T01:38:28.211Z,7.13
2022-09-20T01:41:08.106Z,7.08
2022-09-20T01:43:35.205Z,7.06
2022-09-20T01:46:09.913Z,7.13
2022-09-20T01:48:40.193Z,7.16
2022-09-20T01:51:09.962Z,6.97
2022-09-20T01:53:46.138Z,7.07
2022-09-20T01:56:15.894Z,7.10
2022-09-20T01:58:42.694Z,7.06
2022-09-20T02:01:09.612Z,7.10
2022-09-20T02:03:50.924Z,7.06
2022-09-20T02:06:34.067Z,6.97
2022-09-20T02:09:03.802Z,6.99
2022-09-20T02:11:41.216Z,6.76
2022-09-20T02:14:10.992Z,6.90
2022-09-20T02:16:43.904Z,6.95
2022-09-20T02:19:11.250Z,6.96
2022-09-20T02:21:39.229Z,6.84
2022-09-20T02:24:15.069Z,6.87
2022-09-20T02:27:02.703Z,6.89
2022-09-20T02:29:47.537Z,6.85
2022-09-20T02:32:17.715Z,6.77
2022-09-20T02:35:06.874Z,6.83
2022-09-20T02:37:56.911Z,6.89
2022-09-20T02:40:32.652Z,6.95
2022-09-20T02:42:59.627Z,6.90
2022-09-20T02:45:30.388Z,6.83
2022-09-20T02:48:00.909Z,6.90
2022-09-20T02:50:50.922Z,6.85
2022-09-20T02:53:17.867Z,6.88
2022-09-20T02:55:50.378Z,6.90
2022-09-20T02:58:36.018Z,6.81
2022-09-20T03:01:12.426Z,6.78
2022-09-20T03:03:57.708Z,6.80
2022-09-20T03:06:30.281Z,6.77
2022-09-20T03:09:02.648Z,6.71
2022-09-20T03:11:29.593Z,6.67
2022-09-20T03:14:11.863Z,6.66
2022-09-20T03:16:53.951Z,6.68
2022-09-20T03:19:38.971Z,6.60
2022-09-20T03:22:14.035Z,6.54
2022-09-20T03:25:06.519Z,6.50
2022-09-20T03:27:42.831Z,6.39
2022-09-20T03:30:28.939Z,6.44
2022-09-20T03:33:01.918Z,6.30
2022-09-20T03:35:38.594Z,6.31
2022-09-20T03:38:24.131Z,6.23
2022-09-20T03:40:50.910Z,6.04
2022-09-20T03:43:27.550Z,6.06
2022-09-20T03:46:04.369Z,6.05
2022-09-20T03:48:47.072Z,6.01
2022-09-20T03:51:20.023Z,6.25
2022-09-20T03:53:53.011Z,6.15
2022-09-20T03:56:19.961Z,6.12
2022-09-20T03:58:52.869Z,6.11
2022-09-20T04:01:32.828Z,6.20
2022-09-20T04:04:31.847Z,6.25
2022-09-20T04:07:01.605Z,6.06
2022-09-20T04:09:38.179Z,5.87
2022-09-20T04:12:14.889Z,5.96
2022-09-20T04:14:45.859Z,6.10
2022-09-20T04:17:18.803Z,5.96
2022-09-20T04:19:49.102Z,5.81
2022-09-20T04:22:16.335Z,5.83
2022-09-20T04:24:56.662Z,5.72
2022-09-20T04:27:42.367Z,5.88
2022-09-20T04:30:09.276Z,5.81
2022-09-20T04:32:46.832Z,5.87
2022-09-20T04:35:41.270Z,5.91
2022-09-20T04:38:10.930Z,5.80
2022-09-20T04:40:37.721Z,5.70
2022-09-20T04:43:23.479Z,5.35
2022-09-20T04:45:51.582Z,5.49
2022-09-20T04:48:30.418Z,5.37
2022-09-20T04:51:16.051Z,5.61
2022-09-20T04:54:11.234Z,5.43
2022-09-20T04:57:00.937Z,5.48
2022-09-20T04:59:30.855Z,5.30
2022-09-20T05:02:16.432Z,5.45
2022-09-20T05:05:02.302Z,5.46
2022-09-20T05:07:41.330Z,5.42
2022-09-20T05:10:26.998Z,5.57
2022-09-20T05:12:57.356Z,5.53
2022-09-20T05:15:35.386Z,5.52
2022-09-20T05:18:21.560Z,5.52
2022-09-20T05:21:01.623Z,5.62
2022-09-20T05:23:51.823Z,5.62
2022-09-20T05:26:27.836Z,5.86
2022-09-20T05:28:54.882Z,6.08
2022-09-20T05:31:38.330Z,6.12
2022-09-20T05:34:05.895Z,6.22
2022-09-20T05:36:44.752Z,6.55
2022-09-20T05:39:23.735Z,6.58
2022-09-20T05:42:04.727Z,6.72
2022-09-20T05:44:46.374Z,7.08
2022-09-20T05:47:15.907Z,7.40
2022-09-20T05:49:53.657Z,7.62
2022-09-20T05:52:44.224Z,7.68
2022-09-20T05:55:20.131Z,7.67
2022-09-20T05:57:50.027Z,7.61
2022-09-20T06:00:19.813Z,7.56
2022-09-20T06:02:55.481Z,7.55
2022-09-20T06:05:42.756Z,7.67
2022-09-20T06:08:28.265Z,7.82
2022-09-20T06:11:13.726Z,7.99
2022-09-20T06:14:03.925Z,7.84
2022-09-20T06:16:30.984Z,7.61
2022-09-20T06:19:04.974Z,7.60
2022-09-20T06:22:04.491Z,7.72
2022-09-20T06:24:38.095Z,7.65
2022-09-20T06:27:08.867Z,7.65
2022-09-20T06:29:38.825Z,7.62
2022-09-20T06:32:05.653Z,7.81
2022-09-20T06:34:32.674Z,7.98
2022-09-20T06:37:37.021Z,8.08
2022-09-20T06:40:35.299Z,8.07
2022-09-20T06:43:04.112Z,7.97
2022-09-20T06:45:32.192Z,8.07
2022-09-20T06:48:02.094Z,8.09
2022-09-20T06:50:29.040Z,8.08
2022-09-20T06:52:56.072Z,8.09
2022-09-20T06:55:29.255Z,7.96
2022-09-20T06:57:56.493Z,7.96
2022-09-20T07:00:23.517Z,8.23
2022-09-20T07:02:50.358Z,8.47
2022-09-20T07:05:17.825Z,8.60
2022-09-20T07:07:45.036Z,8.86
2022-09-20T07:10:12.124Z,9.13
2022-09-20T07:12:39.289Z,9.25
2022-09-20T07:15:07.327Z,9.50
2022-09-20T07:17:34.203Z,9.75
2022-09-20T07:20:01.284Z,10.13
2022-09-20T07:22:28.316Z,10.75
2022-09-20T07:24:55.313Z,11.52
2022-09-20T07:27:22.455Z,12.17
2022-09-20T07:29:50.306Z,12.98
2022-09-20T07:32:17.983Z,13.75
2022-09-20T07:34:44.919Z,14.38
2022-09-20T07:37:11.954Z,14.99
2022-09-20T07:39:38.748Z,15.51
2022-09-20T07:42:08.475Z,15.85
2022-09-20T07:44:35.450Z,16.35
2022-09-20T07:47:02.468Z,16.82
2022-09-20T07:49:32.483Z,17.24
2022-09-20T07:51:59.462Z,17.64
2022-09-20T07:54:27.665Z,18.12
2022-09-20T07:56:54.576Z,18.71
2022-09-20T07:59:21.605Z,19.19
2022-09-20T08:01:48.362Z,19.53
2022-09-20T08:04:15.513Z,20.38
2022-09-20T08:06:43.562Z,20.95
2022-09-20T08:09:12.043Z,21.07
2022-09-20T08:11:40.171Z,20.48
2022-09-20T08:14:09.116Z,20.75
2022-09-20T08:16:40.666Z,20.69
2022-09-20T08:19:07.983Z,19.54
2022-09-20T08:21:35.678Z,19.47
2022-09-20T08:24:04.092Z,20.01
2022-09-20T08:26:35.907Z,21.17
2022-09-20T08:29:04.243Z,21.79
2022-09-20T08:31:34.375Z,21.43
2022-09-20T08:34:05.036Z,21.44
2022-09-20T08:36:36.402Z,22.24
2022-09-20T08:41:56.865Z,21.99
2022-09-20T08:44:35.853Z,23.00
2022-09-20T08:47:09.975Z,23.75
2022-09-20T08:49:37.687Z,24.30
2022-09-20T08:52:10.277Z,25.02
2022-09-20T08:54:37.406Z,25.24
2022-09-20T08:57:07.205Z,24.08
2022-09-20T08:59:34.662Z,23.18
2022-09-20T09:02:01.600Z,23.52
2022-09-20T09:04:35.140Z,24.55
2022-09-20T09:07:02.842Z,24.59
2022-09-20T09:09:29.916Z,24.15
2022-09-20T09:11:58.526Z,24.56
2022-09-20T09:14:48.261Z,24.93
2022-09-20T09:17:27.350Z,24.64
2022-09-20T09:19:56.829Z,23.38
2022-09-20T09:22:23.670Z,21.79
2022-09-20T09:25:09.279Z,21.54
2022-09-20T09:27:49.167Z,23.00
2022-09-20T09:30:20.531Z,23.45
2022-09-20T09:32:47.876Z,24.54
2022-09-20T09:35:26.222Z,25.10
2022-09-20T09:37:58.012Z,25.64
2022-09-20T09:40:26.301Z,25.81
2022-09-20T09:42:55.562Z,25.88
2022-09-20T09:45:28.153Z,26.16
2022-09-20T09:47:55.831Z,26.39
2022-09-20T09:50:33.641Z,26.35
2022-09-20T09:53:10.926Z,26.55
2022-09-20T09:55:43.995Z,26.17
2022-09-20T09:58:21.248Z,24.96
2022-09-20T10:00:48.603Z,24.21
2022-09-20T10:03:25.255Z,23.67
2022-09-20T10:06:30.315Z,23.93
2022-09-20T10:09:23.070Z,24.27
2022-09-20T10:11:49.887Z,24.24
2022-09-20T10:14:19.643Z,23.61
2022-09-20T10:17:04.931Z,23.01
2022-09-20T10:19:32.191Z,20.92
2022-09-20T10:22:17.303Z,20.38
2022-09-20T10:24:51.670Z,20.81
2022-09-20T10:27:32.154Z,21.85
2022-09-20T10:30:08.431Z,22.10
2022-09-20T10:32:41.028Z,21.28
2022-09-20T10:35:26.488Z,21.11
2022-09-20T10:38:00.974Z,21.79
2022-09-20T10:40:53.833Z,22.38
2022-09-20T10:43:43.358Z,23.10
2022-09-20T10:49:04.060Z,21.10
2022-09-20T10:51:41.149Z,21.43
2022-09-20T10:54:23.371Z,22.19
2022-09-20T10:56:52.841Z,22.43
2022-09-20T10:59:55.191Z,21.66
2022-09-20T11:02:35.372Z,20.09
2022-09-20T11:05:16.414Z,19.20
2022-09-20T11:07:52.664Z,17.99
2022-09-20T11:10:29.859Z,17.05
2022-09-20T11:13:06.027Z,16.34
2022-09-20T11:15:56.208Z,16.03
2022-09-20T11:18:32.885Z,15.96
2022-09-20T11:21:07.779Z,16.08
2022-09-20T11:23:34.733Z,16.08
2022-09-20T11:26:13.019Z,16.29
2022-09-20T11:28:46.350Z,16.32
2022-09-20T11:31:22.305Z,16.25
2022-09-20T11:33:53.360Z,16.17
2022-09-20T11:36:25.064Z,15.91
2022-09-20T11:38:56.465Z,15.98
2022-09-20T11:41:26.323Z,15.96
2022-09-20T11:43:56.047Z,15.98
2022-09-20T11:46:31.193Z,15.83
2022-09-20T11:49:04.231Z,15.52
2022-09-20T11:51:33.840Z,15.24
2022-09-20T11:54:14.676Z,14.88
2022-09-20T11:56:49.614Z,14.67
2022-09-20T11:59:29.062Z,14.60
2022-09-20T12:01:59.575Z,14.58
2022-09-20T12:04:33.952Z,14.59
2022-09-20T12:07:10.512Z,14.61
2022-09-20T12:09:40.252Z,14.83
2022-09-20T12:12:23.194Z,14.85
2022-09-20T12:14:54.494Z,14.76
2022-09-20T12:17:40.077Z,14.43
2022-09-20T12:20:25.816Z,13.95
2022-09-20T12:22:52.634Z,13.58
2022-09-20T12:25:36.541Z,13.35
2022-09-20T12:28:04.049Z,12.79
2022-09-20T12:30:33.953Z,12.52
2022-09-20T12:33:01.476Z,12.42
2022-09-20T12:35:37.299Z,12.26
2022-09-20T12:38:22.773Z,12.05
2022-09-20T12:41:13.123Z,11.72
2022-09-20T12:43:52.363Z,11.72
2022-09-20T12:46:24.851Z,11.31
2022-09-20T12:48:52.295Z,10.85
2022-09-20T12:51:48.495Z,11.15
2022-09-20T12:54:16.744Z,10.95
2022-09-20T12:56:46.284Z,10.79
2022-09-20T12:59:21.531Z,11.01
2022-09-20T13:01:48.762Z,10.87
2022-09-20T13:04:34.459Z,10.88
2022-09-20T13:07:20.210Z,11.35
2022-09-20T13:09:47.924Z,11.58
2022-09-20T13:12:16.231Z,12.26
2022-09-20T13:14:44.594Z,13.06
2022-09-20T13:17:14.414Z,13.42
2022-09-20T13:19:43.563Z,13.79
2022-09-20T13:22:13.447Z,13.85
2022-09-20T13:25:00.811Z,13.87
2022-09-20T13:27:30.930Z,13.59
2022-09-20T13:30:08.935Z,13.34
2022-09-20T13:32:36.163Z,13.28
2022-09-20T13:35:15.558Z,13.34
2022-09-20T13:37:51.713Z,13.28
2022-09-20T13:40:23.431Z,13.16
2022-09-20T13:42:52.393Z,13.15
2022-09-20T13:45:20.728Z,13.23
2022-09-20T13:47:52.013Z,13.15
2022-09-20T13:50:24.024Z,13.02
2022-09-20T13:52:52.901Z,13.14
2022-09-20T13:55:28.034Z,13.25
2022-09-20T13:57:56.781Z,13.11
2022-09-20T14:00:25.277Z,13.11
2022-09-20T14:02:55.524Z,12.83
2022-09-20T14:05:24.886Z,12.64
2022-09-20T14:07:52.490Z,12.91
2022-09-20T14:10:37.120Z,13.02
2022-09-20T14:13:08.377Z,13.07
2022-09-20T14:15:39.127Z,13.18
2022-09-20T14:18:07.318Z,13.28
2022-09-20T14:20:34.454Z,13.00
2022-09-20T14:23:01.599Z,12.86
2022-09-20T14:25:28.827Z,12.99
2022-09-20T14:28:17.596Z,12.71
2022-09-20T14:30:45.576Z,12.65
2022-09-20T14:33:18.375Z,12.39
2022-09-20T14:35:49.639Z,12.33
2022-09-20T14:38:18.494Z,12.03
2022-09-20T14:40:49.095Z,11.88
2022-09-20T14:43:29.307Z,11.82
2022-09-20T14:45:57.723Z,11.52
2022-09-20T14:48:24.755Z,11.60
2022-09-20T14:51:12.561Z,11.59
2022-09-20T14:53:40.052Z,11.61
2022-09-20T14:56:06.893Z,11.37
2022-09-20T14:58:54.038Z,11.30
2022-09-20T15:01:21.019Z,11.36
2022-09-20T15:03:47.815Z,11.45
2022-09-20T15:06:15.264Z,11.45
2022-09-20T15:08:46.370Z,11.44
2022-09-20T15:11:17.070Z,11.33
2022-09-20T15:13:44.393Z,11.23
2022-09-20T15:16:12.676Z,11.13
2022-09-20T15:18:40.732Z,11.07
2022-09-20T15:21:08.018Z,11.13
2022-09-20T15:23:35.690Z,10.94
2022-09-20T15:26:03.267Z,10.97
2022-09-20T15:28:32.703Z,10.90
2022-09-20T15:30:59.623Z,10.81
2022-09-20T15:33:29.335Z,10.84
2022-09-20T15:35:56.686Z,10.85
2022-09-20T15:38:26.859Z,10.82
2022-09-20T15:40:53.756Z,10.85
2022-09-20T15:43:24.121Z,10.76
2022-09-20T15:45:52.202Z,10.74
2022-09-20T15:48:21.959Z,10.73
2022-09-20T15:51:02.004Z,10.83
2022-09-20T15:53:33.633Z,10.82
2022-09-20T15:56:01.878Z,10.82
2022-09-20T15:58:32.370Z,10.88
2022-09-20T16:01:05.367Z,10.93
2022-09-20T16:03:32.865Z,10.90
2022-09-20T16:06:04.843Z,10.94
2022-09-20T16:08:39.065Z,10.95
2022-09-20T16:11:07.214Z,10.96
2022-09-20T16:13:36.307Z,10.92
2022-09-20T16:16:03.677Z,10.90
2022-09-20T16:18:49.425Z,10.85
2022-09-20T16:21:17.992Z,10.81
2022-09-20T16:23:49.792Z,10.77
2022-09-20T16:26:16.840Z,10.65
2022-09-20T16:28:47.219Z,10.59
2022-09-20T16:31:33.254Z,10.62
2022-09-20T16:34:00.987Z,10.60
2022-09-20T16:36:28.010Z,10.56
2022-09-20T16:38:58.583Z,10.59
2022-09-20T16:41:26.624Z,10.53
2022-09-20T16:43:53.827Z,10.57
2022-09-20T16:46:21.614Z,10.51
2022-09-20T16:48:49.923Z,10.48
2022-09-20T16:51:16.951Z,10.45
2022-09-20T16:53:43.719Z,10.32
2022-09-20T16:56:19.206Z,10.12
2022-09-20T16:58:47.171Z,9.92
2022-09-20T17:01:14.168Z,9.91
2022-09-20T17:03:41.105Z,9.83
2022-09-20T17:06:08.894Z,9.74
2022-09-20T17:08:40.047Z,9.74
2022-09-20T17:11:14.222Z,9.74
2022-09-20T17:13:42.686Z,9.63
2022-09-20T17:16:10.935Z,9.42
2022-09-20T17:18:41.999Z,9.32
2022-09-20T17:21:16.606Z,9.41
2022-09-20T17:23:47.553Z,9.36
2022-09-20T17:26:19.509Z,9.36
2022-09-20T17:28:47.472Z,9.33
2022-09-20T17:31:15.869Z,9.25
2022-09-20T17:33:43.102Z,9.27
2022-09-20T17:36:13.108Z,9.16
2022-09-20T17:38:39.922Z,9.01
2022-09-20T17:41:11.474Z,8.99
2022-09-20T17:43:38.318Z,8.98
2022-09-20T17:46:12.843Z,8.97
2022-09-20T17:48:40.786Z,8.72
2022-09-20T17:51:12.344Z,8.88
2022-09-20T17:53:39.570Z,8.88
2022-09-20T17:56:06.587Z,8.93
2022-09-20T17:58:37.393Z,8.86
2022-09-20T18:01:08.679Z,8.90
2022-09-20T18:03:39.308Z,8.86
2022-09-20T18:06:22.734Z,8.81
2022-09-20T18:08:50.954Z,8.61
2022-09-20T18:11:18.639Z,8.64
2022-09-20T18:13:45.471Z,8.49
2022-09-20T18:16:13.672Z,8.45
2022-09-20T18:18:41.292Z,8.37
2022-09-20T18:21:10.946Z,8.35
2022-09-20T18:23:38.041Z,8.20
2022-09-20T18:26:23.408Z,8.20
2022-09-20T18:28:55.024Z,8.10
2022-09-20T18:31:21.991Z,8.03
2022-09-20T18:33:52.178Z,8.02
2022-09-20T18:36:19.589Z,7.95
2022-09-20T18:38:46.517Z,7.90
2022-09-20T18:41:14.548Z,7.82
2022-09-20T18:43:44.463Z,7.78
2022-09-20T18:46:12.303Z,7.84
2022-09-20T18:48:40.320Z,7.82
2022-09-20T18:51:08.314Z,7.85
2022-09-20T18:53:36.166Z,7.81
2022-09-20T18:56:10.314Z,7.82
2022-09-20T18:58:39.792Z,7.91
2022-09-20T19:01:26.979Z,7.93
2022-09-20T19:04:09.291Z,7.96
2022-09-20T19:06:43.367Z,7.85
2022-09-20T19:09:20.432Z,7.87
2022-09-20T19:11:56.030Z,7.95
2022-09-20T19:14:28.671Z,7.89
2022-09-20T19:17:00.143Z,7.80
2022-09-20T19:19:36.611Z,7.75
2022-09-20T19:22:03.373Z,7.74
2022-09-20T19:24:49.458Z,7.65
2022-09-20T19:27:16.303Z,7.56
2022-09-20T19:29:43.407Z,7.63
2022-09-20T19:32:13.421Z,7.50
2022-09-20T19:34:43.179Z,7.46
2022-09-20T19:37:19.205Z,7.33
2022-09-20T19:39:57.155Z,7.36
2022-09-20T19:42:39.466Z,7.16
2022-09-20T19:45:14.322Z,7.26
2022-09-20T19:47:44.446Z,7.23
2022-09-20T19:50:29.614Z,7.26
2022-09-20T19:52:56.677Z,7.24
2022-09-20T19:55:23.717Z,7.21
2022-09-20T19:57:51.152Z,7.17
2022-09-20T20:00:19.484Z,7.21
2022-09-20T20:02:46.436Z,7.15
2022-09-20T20:05:14.224Z,7.23
2022-09-20T20:08:00.066Z,7.25
2022-09-20T20:10:31.547Z,7.26
2022-09-20T20:13:43.391Z,7.25
2022-09-20T20:16:15.401Z,7.29
2022-09-20T20:19:01.563Z,7.25
2022-09-20T20:21:37.262Z,7.40
2022-09-20T20:24:09.395Z,7.34
2022-09-20T20:26:36.156Z,7.33
2022-09-20T20:29:02.941Z,7.21
2022-09-20T20:31:30.429Z,7.22
2022-09-20T20:33:57.468Z,7.27
2022-09-20T20:36:24.238Z,7.18
2022-09-20T20:38:53.145Z,7.23
2022-09-20T20:41:21.088Z,7.16
2022-09-20T20:43:48.384Z,7.21
2022-09-20T20:46:18.123Z,7.15
2022-09-20T20:48:45.947Z,7.11
2022-09-20T20:51:13.559Z,7.14
2022-09-20T20:53:43.158Z,7.16
2022-09-20T20:56:12.238Z,7.13
2022-09-20T20:58:40.949Z,7.06
2022-09-20T21:01:07.950Z,6.97
2022-09-20T21:03:35.418Z,6.98
2022-09-20T21:06:04.636Z,6.87
2022-09-20T21:08:32.431Z,6.79
2022-09-20T21:11:03.531Z,6.20
2022-09-20T21:13:30.893Z,6.47
2022-09-20T21:16:04.923Z,6.66
2022-09-20T21:18:32.462Z,6.45
2022-09-20T21:20:59.945Z,6.65
2022-09-20T21:23:26.939Z,6.55
2022-09-20T21:26:00.668Z,6.21
2022-09-20T21:28:27.645Z,5.99
2022-09-20T21:31:00.485Z,5.84
2022-09-20T21:33:34.830Z,5.98
2022-09-20T21:36:01.755Z,5.83
2022-09-20T21:38:29.153Z,5.80
2022-09-20T21:41:06.232Z,5.63
2022-09-20T21:43:33.006Z,5.56
2022-09-20T21:46:00.039Z,5.63
2022-09-20T21:48:29.075Z,5.90
2022-09-20T21:51:02.747Z,5.85
2022-09-20T21:53:29.946Z,5.82
2022-09-20T21:55:58.418Z,6.04
2022-09-20T21:58:25.461Z,6.12
2022-09-20T22:00:56.414Z,6.17
2022-09-20T22:03:23.212Z,6.22
2022-09-20T22:05:50.093Z,6.23
2022-09-20T22:08:17.089Z,6.19
2022-09-20T22:10:43.814Z,6.19
2022-09-20T22:13:10.738Z,6.22
2022-09-20T22:15:37.957Z,6.19
2022-09-20T22:18:06.013Z,6.13
2022-09-20T22:20:32.760Z,6.15
2022-09-20T22:23:00.020Z,6.04
2022-09-20T22:25:26.771Z,5.88
2022-09-20T22:27:53.529Z,6.02
2022-09-20T22:30:20.516Z,5.93
2022-09-20T22:32:47.301Z,6.09
2022-09-20T22:35:14.167Z,6.01
2022-09-20T22:37:41.236Z,6.11
2022-09-20T22:40:08.142Z,6.07
2022-09-20T22:42:34.957Z,5.76
2022-09-20T22:45:01.941Z,5.65
2022-09-20T22:47:28.733Z,5.54
2022-09-20T22:49:55.483Z,5.78
2022-09-20T22:52:22.486Z,5.91
2022-09-20T22:54:49.217Z,5.79
2022-09-20T22:57:16.032Z,5.87
2022-09-20T22:59:43.022Z,5.82
2022-09-20T23:02:09.794Z,5.91
2022-09-20T23:04:36.599Z,5.83
2022-09-20T23:07:03.599Z,5.78
2022-09-20T23:09:30.587Z,5.89
2022-09-20T23:11:57.356Z,5.70
2022-09-20T23:14:24.477Z,5.57
2022-09-20T23:16:51.409Z,5.22
2022-09-20T23:19:18.450Z,5.35
2022-09-20T23:21:45.762Z,5.31
2022-09-20T23:24:13.651Z,5.40
2022-09-20T23:26:40.894Z,5.50
2022-09-20T23:29:09.001Z,5.22
2022-09-20T23:31:37.107Z,5.16
2022-09-20T23:34:04.873Z,5.22
2022-09-20T23:36:33.165Z,5.11
2022-09-20T23:39:00.274Z,4.92
2022-09-20T23:41:27.939Z,5.08
2022-09-20T23:43:55.393Z,5.21
2022-09-20T23:46:23.386Z,5.13
2022-09-20T23:48:50.768Z,5.35
2022-09-20T23:51:19.162Z,5.21
2022-09-20T23:53:46.122Z,5.04
2022-09-20T23:56:13.694Z,4.72
2022-09-20T23:58:42.113Z,4.74
